sensor_id;sensor_type;location;lat;lon;timestamp;P1;durP1;ratioP1;P2;durP2;ratioP2
67100;SDS011;54019;61.746;16.106;2023-04-25T00:01:44;1.13;;;0.63;;
67100;SDS011;54019;61.746;16.106;2023-04-25T00:04:10;0.70;;;0.70;;
67100;SDS011;54019;61.746;16.106;2023-04-25T00:06:35;0.75;;;0.60;;
67100;SDS011;54019;61.746;16.106;2023-04-25T00:09:01;1.75;;;0.70;;
67100;SDS011;54019;61.746;16.106;2023-04-25T00:11:27;0.60;;;0.60;;
67100;SDS011;54019;61.746;16.106;2023-04-25T00:13:53;1.80;;;0.68;;
67100;SDS011;54019;61.746;16.106;2023-04-25T00:16:19;1.98;;;0.55;;
67100;SDS011;54019;61.746;16.106;2023-04-25T00:18:46;0.50;;;0.50;;
67100;SDS011;54019;61.746;16.106;2023-04-25T00:21:12;0.80;;;0.52;;
67100;SDS011;54019;61.746;16.106;2023-04-25T00:23:37;1.10;;;0.60;;
67100;SDS011;54019;61.746;16.106;2023-04-25T00:26:03;0.60;;;0.60;;
67100;SDS011;54019;61.746;16.106;2023-04-25T00:28:29;2.67;;;0.68;;
67100;SDS011;54019;61.746;16.106;2023-04-25T00:30:55;0.50;;;0.50;;
67100;SDS011;54019;61.746;16.106;2023-04-25T00:33:20;0.60;;;0.50;;
67100;SDS011;54019;61.746;16.106;2023-04-25T00:35:48;0.75;;;0.60;;
67100;SDS011;54019;61.746;16.106;2023-04-25T00:38:13;0.57;;;0.55;;
67100;SDS011;54019;61.746;16.106;2023-04-25T00:40:39;0.60;;;0.60;;
67100;SDS011;54019;61.746;16.106;2023-04-25T00:43:05;1.40;;;0.70;;
67100;SDS011;54019;61.746;16.106;2023-04-25T00:45:31;2.30;;;0.70;;
67100;SDS011;54019;61.746;16.106;2023-04-25T00:47:57;0.77;;;0.70;;
67100;SDS011;54019;61.746;16.106;2023-04-25T00:50:22;0.57;;;0.57;;
67100;SDS011;54019;61.746;16.106;2023-04-25T00:52:50;0.82;;;0.60;;
67100;SDS011;54019;61.746;16.106;2023-04-25T00:55:16;1.42;;;0.60;;
67100;SDS011;54019;61.746;16.106;2023-04-25T00:57:42;0.73;;;0.60;;
67100;SDS011;54019;61.746;16.106;2023-04-25T01:00:08;0.50;;;0.50;;
67100;SDS011;54019;61.746;16.106;2023-04-25T01:02:35;0.98;;;0.60;;
67100;SDS011;54019;61.746;16.106;2023-04-25T01:05:01;0.45;;;0.45;;
67100;SDS011;54019;61.746;16.106;2023-04-25T01:07:27;3.30;;;0.80;;
67100;SDS011;54019;61.746;16.106;2023-04-25T01:09:54;0.60;;;0.60;;
67100;SDS011;54019;61.746;16.106;2023-04-25T01:12:20;0.60;;;0.60;;
67100;SDS011;54019;61.746;16.106;2023-04-25T01:14:46;1.48;;;0.80;;
67100;SDS011;54019;61.746;16.106;2023-04-25T01:17:12;1.05;;;0.60;;
67100;SDS011;54019;61.746;16.106;2023-04-25T01:19:38;1.05;;;0.75;;
67100;SDS011;54019;61.746;16.106;2023-04-25T01:22:05;0.60;;;0.60;;
67100;SDS011;54019;61.746;16.106;2023-04-25T01:24:31;1.50;;;0.68;;
67100;SDS011;54019;61.746;16.106;2023-04-25T01:26:58;0.93;;;0.70;;
67100;SDS011;54019;61.746;16.106;2023-04-25T01:29:24;1.05;;;0.70;;
67100;SDS011;54019;61.746;16.106;2023-04-25T01:31:52;0.75;;;0.60;;
67100;SDS011;54019;61.746;16.106;2023-04-25T01:34:18;0.60;;;0.55;;
67100;SDS011;54019;61.746;16.106;2023-04-25T01:36:43;0.80;;;0.75;;
67100;SDS011;54019;61.746;16.106;2023-04-25T01:39:11;1.52;;;0.75;;
67100;SDS011;54019;61.746;16.106;2023-04-25T01:41:37;0.50;;;0.50;;
67100;SDS011;54019;61.746;16.106;2023-04-25T01:44:03;1.45;;;0.68;;
67100;SDS011;54019;61.746;16.106;2023-04-25T01:46:29;0.93;;;0.85;;
67100;SDS011;54019;61.746;16.106;2023-04-25T01:48:55;1.00;;;0.70;;
67100;SDS011;54019;61.746;16.106;2023-04-25T01:51:21;1.08;;;0.93;;
67100;SDS011;54019;61.746;16.106;2023-04-25T01:53:47;1.15;;;1.00;;
67100;SDS011;54019;61.746;16.106;2023-04-25T01:56:14;0.60;;;0.60;;
67100;SDS011;54019;61.746;16.106;2023-04-25T01:58:39;0.98;;;0.80;;
67100;SDS011;54019;61.746;16.106;2023-04-25T02:01:05;0.93;;;0.90;;
67100;SDS011;54019;61.746;16.106;2023-04-25T02:03:31;0.70;;;0.70;;
67100;SDS011;54019;61.746;16.106;2023-04-25T02:05:57;0.95;;;0.70;;
67100;SDS011;54019;61.746;16.106;2023-04-25T02:08:23;0.95;;;0.68;;
67100;SDS011;54019;61.746;16.106;2023-04-25T02:10:49;0.77;;;0.77;;
67100;SDS011;54019;61.746;16.106;2023-04-25T02:13:16;1.00;;;0.90;;
67100;SDS011;54019;61.746;16.106;2023-04-25T02:15:42;1.23;;;0.70;;
67100;SDS011;54019;61.746;16.106;2023-04-25T02:18:07;0.77;;;0.77;;
67100;SDS011;54019;61.746;16.106;2023-04-25T02:20:33;0.90;;;0.80;;
67100;SDS011;54019;61.746;16.106;2023-04-25T02:22:59;0.80;;;0.80;;
67100;SDS011;54019;61.746;16.106;2023-04-25T02:25:25;1.02;;;0.70;;
67100;SDS011;54019;61.746;16.106;2023-04-25T02:27:51;2.50;;;0.90;;
67100;SDS011;54019;61.746;16.106;2023-04-25T02:30:18;0.82;;;0.80;;
67100;SDS011;54019;61.746;16.106;2023-04-25T02:32:44;1.27;;;0.90;;
67100;SDS011;54019;61.746;16.106;2023-04-25T02:35:10;1.27;;;0.80;;
67100;SDS011;54019;61.746;16.106;2023-04-25T02:37:37;1.17;;;0.70;;
67100;SDS011;54019;61.746;16.106;2023-04-25T02:40:03;1.15;;;0.82;;
67100;SDS011;54019;61.746;16.106;2023-04-25T02:42:30;0.98;;;0.80;;
67100;SDS011;54019;61.746;16.106;2023-04-25T02:44:56;1.50;;;0.88;;
67100;SDS011;54019;61.746;16.106;2023-04-25T02:47:23;0.95;;;0.93;;
67100;SDS011;54019;61.746;16.106;2023-04-25T02:49:49;0.88;;;0.82;;
67100;SDS011;54019;61.746;16.106;2023-04-25T02:52:15;1.20;;;0.82;;
67100;SDS011;54019;61.746;16.106;2023-04-25T02:54:40;2.25;;;0.95;;
67100;SDS011;54019;61.746;16.106;2023-04-25T02:57:06;1.42;;;1.05;;
67100;SDS011;54019;61.746;16.106;2023-04-25T02:59:32;1.60;;;0.95;;
67100;SDS011;54019;61.746;16.106;2023-04-25T03:01:58;1.05;;;0.90;;
67100;SDS011;54019;61.746;16.106;2023-04-25T03:04:25;0.80;;;0.80;;
67100;SDS011;54019;61.746;16.106;2023-04-25T03:06:51;1.10;;;1.00;;
67100;SDS011;54019;61.746;16.106;2023-04-25T03:09:17;1.02;;;0.90;;
67100;SDS011;54019;61.746;16.106;2023-04-25T03:11:43;1.00;;;0.80;;
67100;SDS011;54019;61.746;16.106;2023-04-25T03:14:09;0.88;;;0.70;;
67100;SDS011;54019;61.746;16.106;2023-04-25T03:16:35;0.80;;;0.80;;
67100;SDS011;54019;61.746;16.106;2023-04-25T03:19:01;0.90;;;0.88;;
67100;SDS011;54019;61.746;16.106;2023-04-25T03:21:28;1.42;;;0.70;;
67100;SDS011;54019;61.746;16.106;2023-04-25T03:23:54;1.35;;;0.80;;
67100;SDS011;54019;61.746;16.106;2023-04-25T03:26:20;1.63;;;1.10;;
67100;SDS011;54019;61.746;16.106;2023-04-25T03:28:46;1.05;;;0.93;;
67100;SDS011;54019;61.746;16.106;2023-04-25T03:31:12;1.17;;;1.08;;
67100;SDS011;54019;61.746;16.106;2023-04-25T03:33:37;0.90;;;0.90;;
67100;SDS011;54019;61.746;16.106;2023-04-25T03:36:03;1.00;;;0.95;;
67100;SDS011;54019;61.746;16.106;2023-04-25T03:38:31;0.95;;;0.90;;
67100;SDS011;54019;61.746;16.106;2023-04-25T03:40:57;1.20;;;0.93;;
67100;SDS011;54019;61.746;16.106;2023-04-25T03:43:23;0.80;;;0.80;;
67100;SDS011;54019;61.746;16.106;2023-04-25T03:45:48;1.13;;;1.02;;
67100;SDS011;54019;61.746;16.106;2023-04-25T03:48:15;1.10;;;1.00;;
67100;SDS011;54019;61.746;16.106;2023-04-25T03:50:41;1.38;;;1.05;;
67100;SDS011;54019;61.746;16.106;2023-04-25T03:53:07;1.08;;;1.00;;
67100;SDS011;54019;61.746;16.106;2023-04-25T03:55:34;1.00;;;0.90;;
67100;SDS011;54019;61.746;16.106;2023-04-25T03:57:59;0.90;;;0.90;;
67100;SDS011;54019;61.746;16.106;2023-04-25T04:00:25;1.25;;;1.15;;
67100;SDS011;54019;61.746;16.106;2023-04-25T04:02:51;1.60;;;1.20;;
67100;SDS011;54019;61.746;16.106;2023-04-25T04:05:17;1.10;;;0.98;;
67100;SDS011;54019;61.746;16.106;2023-04-25T04:07:43;0.90;;;0.90;;
67100;SDS011;54019;61.746;16.106;2023-04-25T04:10:09;0.93;;;0.90;;
67100;SDS011;54019;61.746;16.106;2023-04-25T04:12:36;1.17;;;1.08;;
67100;SDS011;54019;61.746;16.106;2023-04-25T04:15:03;1.30;;;1.10;;
67100;SDS011;54019;61.746;16.106;2023-04-25T04:17:30;1.73;;;1.27;;
67100;SDS011;54019;61.746;16.106;2023-04-25T04:19:56;1.30;;;1.20;;
67100;SDS011;54019;61.746;16.106;2023-04-25T04:22:21;1.38;;;1.10;;
67100;SDS011;54019;61.746;16.106;2023-04-25T04:24:47;1.15;;;1.05;;
67100;SDS011;54019;61.746;16.106;2023-04-25T04:27:13;1.38;;;1.17;;
67100;SDS011;54019;61.746;16.106;2023-04-25T04:29:40;2.00;;;1.25;;
67100;SDS011;54019;61.746;16.106;2023-04-25T04:32:06;1.20;;;1.10;;
67100;SDS011;54019;61.746;16.106;2023-04-25T04:34:32;1.48;;;1.20;;
67100;SDS011;54019;61.746;16.106;2023-04-25T04:36:57;0.93;;;0.90;;
67100;SDS011;54019;61.746;16.106;2023-04-25T04:39:23;3.00;;;1.10;;
67100;SDS011;54019;61.746;16.106;2023-04-25T04:41:49;1.30;;;1.05;;
67100;SDS011;54019;61.746;16.106;2023-04-25T04:44:15;1.30;;;1.20;;
67100;SDS011;54019;61.746;16.106;2023-04-25T04:46:42;1.27;;;1.10;;
67100;SDS011;54019;61.746;16.106;2023-04-25T04:49:08;1.20;;;1.10;;
67100;SDS011;54019;61.746;16.106;2023-04-25T04:51:34;1.23;;;1.13;;
67100;SDS011;54019;61.746;16.106;2023-04-25T04:53:59;1.25;;;1.05;;
67100;SDS011;54019;61.746;16.106;2023-04-25T04:56:25;1.35;;;1.25;;
67100;SDS011;54019;61.746;16.106;2023-04-25T04:58:51;1.40;;;1.30;;
67100;SDS011;54019;61.746;16.106;2023-04-25T05:01:17;1.20;;;1.10;;
67100;SDS011;54019;61.746;16.106;2023-04-25T05:03:44;3.13;;;0.93;;
67100;SDS011;54019;61.746;16.106;2023-04-25T05:06:10;2.08;;;1.33;;
67100;SDS011;54019;61.746;16.106;2023-04-25T05:08:35;1.63;;;1.20;;
67100;SDS011;54019;61.746;16.106;2023-04-25T05:11:01;1.23;;;1.10;;
67100;SDS011;54019;61.746;16.106;2023-04-25T05:13:27;1.42;;;1.10;;
67100;SDS011;54019;61.746;16.106;2023-04-25T05:15:53;6.38;;;1.20;;
67100;SDS011;54019;61.746;16.106;2023-04-25T05:18:19;2.63;;;1.27;;
67100;SDS011;54019;61.746;16.106;2023-04-25T05:20:46;2.95;;;1.10;;
67100;SDS011;54019;61.746;16.106;2023-04-25T05:23:12;3.90;;;1.20;;
67100;SDS011;54019;61.746;16.106;2023-04-25T05:25:38;5.85;;;1.38;;
67100;SDS011;54019;61.746;16.106;2023-04-25T05:28:04;4.78;;;1.10;;
67100;SDS011;54019;61.746;16.106;2023-04-25T05:30:29;1.88;;;1.20;;
67100;SDS011;54019;61.746;16.106;2023-04-25T05:32:55;2.60;;;1.30;;
67100;SDS011;54019;61.746;16.106;2023-04-25T05:35:21;1.35;;;1.00;;
67100;SDS011;54019;61.746;16.106;2023-04-25T05:37:49;1.67;;;1.05;;
67100;SDS011;54019;61.746;16.106;2023-04-25T05:40:14;1.95;;;1.10;;
67100;SDS011;54019;61.746;16.106;2023-04-25T05:42:40;3.35;;;1.25;;
67100;SDS011;54019;61.746;16.106;2023-04-25T05:45:06;2.55;;;1.13;;
67100;SDS011;54019;61.746;16.106;2023-04-25T05:47:32;2.20;;;0.80;;
67100;SDS011;54019;61.746;16.106;2023-04-25T05:49:58;1.23;;;1.13;;
67100;SDS011;54019;61.746;16.106;2023-04-25T05:52:24;4.20;;;0.98;;
67100;SDS011;54019;61.746;16.106;2023-04-25T05:54:51;1.23;;;0.90;;
67100;SDS011;54019;61.746;16.106;2023-04-25T05:57:20;1.23;;;0.88;;
67100;SDS011;54019;61.746;16.106;2023-04-25T05:59:47;2.50;;;1.10;;
67100;SDS011;54019;61.746;16.106;2023-04-25T06:02:13;1.02;;;1.00;;
67100;SDS011;54019;61.746;16.106;2023-04-25T06:04:39;1.80;;;0.85;;
67100;SDS011;54019;61.746;16.106;2023-04-25T06:07:05;2.25;;;1.17;;
67100;SDS011;54019;61.746;16.106;2023-04-25T06:09:30;1.33;;;0.80;;
67100;SDS011;54019;61.746;16.106;2023-04-25T06:11:57;1.00;;;0.90;;
67100;SDS011;54019;61.746;16.106;2023-04-25T06:14:23;0.75;;;0.75;;
67100;SDS011;54019;61.746;16.106;2023-04-25T06:16:49;9.10;;;1.67;;
67100;SDS011;54019;61.746;16.106;2023-04-25T06:19:15;7.93;;;1.60;;
67100;SDS011;54019;61.746;16.106;2023-04-25T06:21:41;6.50;;;1.65;;
67100;SDS011;54019;61.746;16.106;2023-04-25T06:24:08;4.93;;;1.20;;
67100;SDS011;54019;61.746;16.106;2023-04-25T06:26:33;4.10;;;0.95;;
67100;SDS011;54019;61.746;16.106;2023-04-25T06:29:01;5.88;;;1.20;;
67100;SDS011;54019;61.746;16.106;2023-04-25T06:31:26;5.38;;;1.20;;
67100;SDS011;54019;61.746;16.106;2023-04-25T06:33:52;2.50;;;1.20;;
67100;SDS011;54019;61.746;16.106;2023-04-25T06:36:18;2.38;;;0.93;;
67100;SDS011;54019;61.746;16.106;2023-04-25T06:38:44;3.45;;;1.08;;
67100;SDS011;54019;61.746;16.106;2023-04-25T06:41:10;5.85;;;1.23;;
67100;SDS011;54019;61.746;16.106;2023-04-25T06:43:36;1.63;;;0.80;;
67100;SDS011;54019;61.746;16.106;2023-04-25T06:46:03;1.73;;;1.00;;
67100;SDS011;54019;61.746;16.106;2023-04-25T06:48:29;2.78;;;0.95;;
67100;SDS011;54019;61.746;16.106;2023-04-25T06:50:54;1.00;;;0.80;;
67100;SDS011;54019;61.746;16.106;2023-04-25T06:53:20;2.33;;;0.88;;
67100;SDS011;54019;61.746;16.106;2023-04-25T06:55:46;3.67;;;0.82;;
67100;SDS011;54019;61.746;16.106;2023-04-25T06:58:12;0.80;;;0.73;;
67100;SDS011;54019;61.746;16.106;2023-04-25T07:00:38;1.02;;;0.77;;
67100;SDS011;54019;61.746;16.106;2023-04-25T07:03:05;1.80;;;0.80;;
67100;SDS011;54019;61.746;16.106;2023-04-25T07:05:31;1.88;;;0.70;;
67100;SDS011;54019;61.746;16.106;2023-04-25T07:07:57;1.70;;;0.75;;
67100;SDS011;54019;61.746;16.106;2023-04-25T07:10:22;2.60;;;0.73;;
67100;SDS011;54019;61.746;16.106;2023-04-25T07:12:48;1.42;;;0.77;;
67100;SDS011;54019;61.746;16.106;2023-04-25T07:15:14;1.63;;;0.98;;
67100;SDS011;54019;61.746;16.106;2023-04-25T07:17:40;3.08;;;1.00;;
67100;SDS011;54019;61.746;16.106;2023-04-25T07:20:07;7.00;;;0.68;;
67100;SDS011;54019;61.746;16.106;2023-04-25T07:22:34;3.15;;;0.70;;
67100;SDS011;54019;61.746;16.106;2023-04-25T07:24:59;1.98;;;0.70;;
67100;SDS011;54019;61.746;16.106;2023-04-25T07:27:25;1.00;;;0.60;;
67100;SDS011;54019;61.746;16.106;2023-04-25T07:29:51;4.05;;;0.80;;
67100;SDS011;54019;61.746;16.106;2023-04-25T07:32:17;2.58;;;0.77;;
67100;SDS011;54019;61.746;16.106;2023-04-25T07:34:43;1.27;;;0.60;;
67100;SDS011;54019;61.746;16.106;2023-04-25T07:37:10;3.33;;;0.60;;
67100;SDS011;54019;61.746;16.106;2023-04-25T07:39:36;1.95;;;0.60;;
67100;SDS011;54019;61.746;16.106;2023-04-25T07:42:01;3.00;;;0.70;;
67100;SDS011;54019;61.746;16.106;2023-04-25T07:44:27;2.00;;;0.70;;
67100;SDS011;54019;61.746;16.106;2023-04-25T07:46:53;2.13;;;0.52;;
67100;SDS011;54019;61.746;16.106;2023-04-25T07:49:19;1.45;;;0.50;;
67100;SDS011;54019;61.746;16.106;2023-04-25T07:51:45;0.52;;;0.50;;
67100;SDS011;54019;61.746;16.106;2023-04-25T07:54:13;0.80;;;0.60;;
67100;SDS011;54019;61.746;16.106;2023-04-25T07:56:39;3.70;;;0.60;;
67100;SDS011;54019;61.746;16.106;2023-04-25T07:59:05;2.20;;;0.73;;
67100;SDS011;54019;61.746;16.106;2023-04-25T08:01:31;1.02;;;0.60;;
67100;SDS011;54019;61.746;16.106;2023-04-25T08:03:57;0.85;;;0.60;;
67100;SDS011;54019;61.746;16.106;2023-04-25T08:06:22;1.27;;;0.60;;
67100;SDS011;54019;61.746;16.106;2023-04-25T08:08:48;2.70;;;0.60;;
67100;SDS011;54019;61.746;16.106;2023-04-25T08:11:15;3.80;;;0.70;;
67100;SDS011;54019;61.746;16.106;2023-04-25T08:13:41;1.35;;;0.57;;
67100;SDS011;54019;61.746;16.106;2023-04-25T08:16:07;0.75;;;0.50;;
67100;SDS011;54019;61.746;16.106;2023-04-25T08:18:33;1.40;;;0.77;;
67100;SDS011;54019;61.746;16.106;2023-04-25T08:20:58;0.43;;;0.43;;
67100;SDS011;54019;61.746;16.106;2023-04-25T08:23:24;1.98;;;0.52;;
67100;SDS011;54019;61.746;16.106;2023-04-25T08:25:50;1.23;;;0.40;;
67100;SDS011;54019;61.746;16.106;2023-04-25T08:28:17;2.50;;;0.50;;
67100;SDS011;54019;61.746;16.106;2023-04-25T08:30:43;0.68;;;0.45;;
67100;SDS011;54019;61.746;16.106;2023-04-25T08:33:09;0.40;;;0.40;;
67100;SDS011;54019;61.746;16.106;2023-04-25T08:35:34;0.98;;;0.50;;
67100;SDS011;54019;61.746;16.106;2023-04-25T08:38:00;1.00;;;0.50;;
67100;SDS011;54019;61.746;16.106;2023-04-25T08:40:27;1.50;;;0.40;;
67100;SDS011;54019;61.746;16.106;2023-04-25T08:42:53;1.85;;;0.40;;
67100;SDS011;54019;61.746;16.106;2023-04-25T08:45:21;0.32;;;0.32;;
67100;SDS011;54019;61.746;16.106;2023-04-25T08:47:47;0.40;;;0.40;;
67100;SDS011;54019;61.746;16.106;2023-04-25T08:50:16;1.85;;;0.40;;
67100;SDS011;54019;61.746;16.106;2023-04-25T08:52:43;2.05;;;0.35;;
67100;SDS011;54019;61.746;16.106;2023-04-25T08:55:10;0.88;;;0.35;;
67100;SDS011;54019;61.746;16.106;2023-04-25T08:57:38;0.40;;;0.40;;
67100;SDS011;54019;61.746;16.106;2023-04-25T09:00:06;0.30;;;0.30;;
67100;SDS011;54019;61.746;16.106;2023-04-25T09:02:34;1.05;;;0.30;;
67100;SDS011;54019;61.746;16.106;2023-04-25T09:05:00;0.30;;;0.30;;
67100;SDS011;54019;61.746;16.106;2023-04-25T09:07:26;0.30;;;0.30;;
67100;SDS011;54019;61.746;16.106;2023-04-25T09:09:52;0.55;;;0.32;;
67100;SDS011;54019;61.746;16.106;2023-04-25T09:12:18;0.30;;;0.30;;
67100;SDS011;54019;61.746;16.106;2023-04-25T09:14:45;1.48;;;0.47;;
67100;SDS011;54019;61.746;16.106;2023-04-25T09:17:27;0.60;;;0.40;;
67100;SDS011;54019;61.746;16.106;2023-04-25T09:19:54;0.43;;;0.40;;
67100;SDS011;54019;61.746;16.106;2023-04-25T09:22:20;0.40;;;0.40;;
67100;SDS011;54019;61.746;16.106;2023-04-25T09:24:46;0.45;;;0.30;;
67100;SDS011;54019;61.746;16.106;2023-04-25T09:27:16;0.55;;;0.30;;
67100;SDS011;54019;61.746;16.106;2023-04-25T09:29:44;0.82;;;0.32;;
67100;SDS011;54019;61.746;16.106;2023-04-25T09:32:14;1.27;;;0.30;;
67100;SDS011;54019;61.746;16.106;2023-04-25T09:34:47;0.65;;;0.32;;
67100;SDS011;54019;61.746;16.106;2023-04-25T09:37:18;0.30;;;0.30;;
67100;SDS011;54019;61.746;16.106;2023-04-25T09:39:44;0.30;;;0.30;;
67100;SDS011;54019;61.746;16.106;2023-04-25T09:42:11;0.20;;;0.20;;
67100;SDS011;54019;61.746;16.106;2023-04-25T09:44:36;0.65;;;0.20;;
67100;SDS011;54019;61.746;16.106;2023-04-25T09:47:07;3.17;;;0.30;;
67100;SDS011;54019;61.746;16.106;2023-04-25T09:49:38;0.65;;;0.40;;
67100;SDS011;54019;61.746;16.106;2023-04-25T09:52:05;3.45;;;0.77;;
67100;SDS011;54019;61.746;16.106;2023-04-25T09:54:32;2.80;;;0.43;;
67100;SDS011;54019;61.746;16.106;2023-04-25T09:56:58;2.20;;;0.30;;
67100;SDS011;54019;61.746;16.106;2023-04-25T09:59:29;0.25;;;0.20;;
67100;SDS011;54019;61.746;16.106;2023-04-25T10:01:56;1.60;;;0.40;;
67100;SDS011;54019;61.746;16.106;2023-04-25T10:04:24;1.17;;;0.60;;
67100;SDS011;54019;61.746;16.106;2023-04-25T10:06:53;5.20;;;0.50;;
67100;SDS011;54019;61.746;16.106;2023-04-25T10:09:21;0.47;;;0.30;;
67100;SDS011;54019;61.746;16.106;2023-04-25T10:11:52;7.43;;;0.38;;
67100;SDS011;54019;61.746;16.106;2023-04-25T10:14:18;2.95;;;0.40;;
67100;SDS011;54019;61.746;16.106;2023-04-25T10:16:45;0.73;;;0.30;;
67100;SDS011;54019;61.746;16.106;2023-04-25T10:19:12;0.47;;;0.30;;
67100;SDS011;54019;61.746;16.106;2023-04-25T10:21:39;2.70;;;0.28;;
67100;SDS011;54019;61.746;16.106;2023-04-25T10:24:11;0.57;;;0.20;;
67100;SDS011;54019;61.746;16.106;2023-04-25T10:26:37;0.20;;;0.20;;
67100;SDS011;54019;61.746;16.106;2023-04-25T10:29:05;0.63;;;0.30;;
67100;SDS011;54019;61.746;16.106;2023-04-25T10:31:30;4.20;;;0.40;;
67100;SDS011;54019;61.746;16.106;2023-04-25T10:33:56;1.20;;;0.15;;
67100;SDS011;54019;61.746;16.106;2023-04-25T10:36:24;0.50;;;0.20;;
67100;SDS011;54019;61.746;16.106;2023-04-25T10:38:50;0.45;;;0.22;;
67100;SDS011;54019;61.746;16.106;2023-04-25T10:41:17;1.25;;;0.13;;
67100;SDS011;54019;61.746;16.106;2023-04-25T10:43:44;1.10;;;0.20;;
67100;SDS011;54019;61.746;16.106;2023-04-25T10:46:16;0.32;;;0.10;;
67100;SDS011;54019;61.746;16.106;2023-04-25T10:48:46;0.20;;;0.20;;
67100;SDS011;54019;61.746;16.106;2023-04-25T10:51:16;0.30;;;0.28;;
67100;SDS011;54019;61.746;16.106;2023-04-25T10:56:12;1.10;;;0.10;;
67100;SDS011;54019;61.746;16.106;2023-04-25T10:58:42;0.10;;;0.10;;
67100;SDS011;54019;61.746;16.106;2023-04-25T11:01:09;0.10;;;0.10;;
67100;SDS011;54019;61.746;16.106;2023-04-25T11:03:39;0.17;;;0.17;;
67100;SDS011;54019;61.746;16.106;2023-04-25T11:06:06;0.10;;;0.10;;
67100;SDS011;54019;61.746;16.106;2023-04-25T11:08:42;0.52;;;0.10;;
67100;SDS011;54019;61.746;16.106;2023-04-25T11:11:13;0.88;;;0.10;;
67100;SDS011;54019;61.746;16.106;2023-04-25T11:13:39;0.50;;;0.10;;
67100;SDS011;54019;61.746;16.106;2023-04-25T11:16:08;0.65;;;0.10;;
67100;SDS011;54019;61.746;16.106;2023-04-25T11:18:44;0.10;;;0.10;;
67100;SDS011;54019;61.746;16.106;2023-04-25T11:21:10;0.47;;;0.10;;
67100;SDS011;54019;61.746;16.106;2023-04-25T11:23:36;0.20;;;0.10;;
67100;SDS011;54019;61.746;16.106;2023-04-25T11:26:02;0.20;;;0.10;;
67100;SDS011;54019;61.746;16.106;2023-04-25T11:28:28;0.10;;;0.10;;
67100;SDS011;54019;61.746;16.106;2023-04-25T11:30:54;0.10;;;0.10;;
67100;SDS011;54019;61.746;16.106;2023-04-25T11:33:22;0.10;;;0.10;;
67100;SDS011;54019;61.746;16.106;2023-04-25T11:35:50;0.10;;;0.10;;
67100;SDS011;54019;61.746;16.106;2023-04-25T11:38:18;0.10;;;0.10;;
67100;SDS011;54019;61.746;16.106;2023-04-25T11:40:44;0.30;;;0.15;;
67100;SDS011;54019;61.746;16.106;2023-04-25T11:43:15;0.10;;;0.10;;
67100;SDS011;54019;61.746;16.106;2023-04-25T11:45:45;0.00;;;0.00;;
67100;SDS011;54019;61.746;16.106;2023-04-25T11:48:11;0.10;;;0.10;;
67100;SDS011;54019;61.746;16.106;2023-04-25T11:50:38;0.43;;;0.20;;
67100;SDS011;54019;61.746;16.106;2023-04-25T11:53:05;0.10;;;0.10;;
67100;SDS011;54019;61.746;16.106;2023-04-25T11:55:31;0.35;;;0.13;;
67100;SDS011;54019;61.746;16.106;2023-04-25T11:57:59;0.93;;;0.10;;
67100;SDS011;54019;61.746;16.106;2023-04-25T12:00:25;0.20;;;0.20;;
67100;SDS011;54019;61.746;16.106;2023-04-25T12:02:52;0.10;;;0.10;;
67100;SDS011;54019;61.746;16.106;2023-04-25T12:05:19;0.10;;;0.10;;
67100;SDS011;54019;61.746;16.106;2023-04-25T12:07:45;0.22;;;0.20;;
67100;SDS011;54019;61.746;16.106;2023-04-25T12:10:13;1.60;;;0.13;;
67100;SDS011;54019;61.746;16.106;2023-04-25T12:12:41;0.10;;;0.10;;
67100;SDS011;54019;61.746;16.106;2023-04-25T12:15:09;1.85;;;0.10;;
67100;SDS011;54019;61.746;16.106;2023-04-25T12:17:36;0.10;;;0.10;;
67100;SDS011;54019;61.746;16.106;2023-04-25T12:20:05;0.77;;;0.10;;
67100;SDS011;54019;61.746;16.106;2023-04-25T12:22:32;2.55;;;0.13;;
67100;SDS011;54019;61.746;16.106;2023-04-25T12:24:59;0.20;;;0.20;;
67100;SDS011;54019;61.746;16.106;2023-04-25T12:27:26;1.95;;;0.20;;
67100;SDS011;54019;61.746;16.106;2023-04-25T12:29:52;0.20;;;0.20;;
67100;SDS011;54019;61.746;16.106;2023-04-25T12:32:19;0.10;;;0.10;;
67100;SDS011;54019;61.746;16.106;2023-04-25T12:34:45;0.75;;;0.20;;
67100;SDS011;54019;61.746;16.106;2023-04-25T12:37:11;3.03;;;0.20;;
67100;SDS011;54019;61.746;16.106;2023-04-25T12:39:36;1.42;;;0.40;;
67100;SDS011;54019;61.746;16.106;2023-04-25T12:42:02;2.08;;;0.30;;
67100;SDS011;54019;61.746;16.106;2023-04-25T12:44:29;3.13;;;0.40;;
67100;SDS011;54019;61.746;16.106;2023-04-25T12:46:55;2.38;;;0.40;;
67100;SDS011;54019;61.746;16.106;2023-04-25T12:49:21;3.72;;;0.35;;
67100;SDS011;54019;61.746;16.106;2023-04-25T12:51:47;3.55;;;0.32;;
67100;SDS011;54019;61.746;16.106;2023-04-25T12:54:13;2.13;;;0.28;;
67100;SDS011;54019;61.746;16.106;2023-04-25T12:56:39;3.47;;;0.22;;
67100;SDS011;54019;61.746;16.106;2023-04-25T12:59:06;0.90;;;0.30;;
67100;SDS011;54019;61.746;16.106;2023-04-25T13:01:33;0.32;;;0.15;;
67100;SDS011;54019;61.746;16.106;2023-04-25T13:03:59;0.40;;;0.20;;
67100;SDS011;54019;61.746;16.106;2023-04-25T13:06:25;2.58;;;0.25;;
67100;SDS011;54019;61.746;16.106;2023-04-25T13:08:50;1.73;;;0.20;;
67100;SDS011;54019;61.746;16.106;2023-04-25T13:11:16;4.97;;;1.05;;
67100;SDS011;54019;61.746;16.106;2023-04-25T13:13:43;4.22;;;0.80;;
67100;SDS011;54019;61.746;16.106;2023-04-25T13:16:09;3.42;;;0.70;;
67100;SDS011;54019;61.746;16.106;2023-04-25T13:18:36;2.45;;;0.50;;
67100;SDS011;54019;61.746;16.106;2023-04-25T13:21:02;2.92;;;0.68;;
67100;SDS011;54019;61.746;16.106;2023-04-25T13:23:28;3.42;;;0.68;;
67100;SDS011;54019;61.746;16.106;2023-04-25T13:25:54;2.70;;;0.50;;
67100;SDS011;54019;61.746;16.106;2023-04-25T13:28:20;5.90;;;0.68;;
67100;SDS011;54019;61.746;16.106;2023-04-25T13:30:46;1.38;;;0.32;;
67100;SDS011;54019;61.746;16.106;2023-04-25T13:33:12;5.80;;;0.40;;
67100;SDS011;54019;61.746;16.106;2023-04-25T13:35:39;2.90;;;0.40;;
67100;SDS011;54019;61.746;16.106;2023-04-25T13:38:06;2.25;;;0.77;;
67100;SDS011;54019;61.746;16.106;2023-04-25T13:40:32;1.05;;;0.35;;
67100;SDS011;54019;61.746;16.106;2023-04-25T13:42:58;2.17;;;0.45;;
67100;SDS011;54019;61.746;16.106;2023-04-25T13:45:24;2.15;;;0.38;;
67100;SDS011;54019;61.746;16.106;2023-04-25T13:47:50;1.58;;;0.60;;
67100;SDS011;54019;61.746;16.106;2023-04-25T13:50:15;1.98;;;0.40;;
67100;SDS011;54019;61.746;16.106;2023-04-25T13:52:43;2.03;;;0.50;;
67100;SDS011;54019;61.746;16.106;2023-04-25T13:55:09;1.90;;;0.70;;
67100;SDS011;54019;61.746;16.106;2023-04-25T13:57:34;3.25;;;0.65;;
67100;SDS011;54019;61.746;16.106;2023-04-25T14:00:01;3.63;;;0.50;;
67100;SDS011;54019;61.746;16.106;2023-04-25T14:02:28;2.30;;;0.40;;
67100;SDS011;54019;61.746;16.106;2023-04-25T14:04:53;2.97;;;0.45;;
67100;SDS011;54019;61.746;16.106;2023-04-25T14:07:19;1.23;;;0.40;;
67100;SDS011;54019;61.746;16.106;2023-04-25T14:09:46;4.35;;;0.65;;
67100;SDS011;54019;61.746;16.106;2023-04-25T14:12:12;0.50;;;0.30;;
67100;SDS011;54019;61.746;16.106;2023-04-25T14:14:38;2.05;;;0.40;;
67100;SDS011;54019;61.746;16.106;2023-04-25T14:17:04;1.10;;;0.30;;
67100;SDS011;54019;61.746;16.106;2023-04-25T14:19:30;2.13;;;0.40;;
67100;SDS011;54019;61.746;16.106;2023-04-25T14:21:55;1.80;;;0.30;;
67100;SDS011;54019;61.746;16.106;2023-04-25T14:24:21;2.15;;;0.25;;
67100;SDS011;54019;61.746;16.106;2023-04-25T14:26:48;0.30;;;0.30;;
67100;SDS011;54019;61.746;16.106;2023-04-25T14:29:14;3.00;;;0.60;;
67100;SDS011;54019;61.746;16.106;2023-04-25T14:31:40;1.25;;;0.50;;